Hutchinson, KS (67501)

4:58 AM CDT on August 30, 2015 (GMT -0500)
KKSHUTCH9 | | Change Station
CLOSE
Current Station
Personal Weather Station
Location: Hutchinson, KS
Elevation: 1549 ft
Nearby Weather Stations
Active Advisory: Dense Fog Advisory

Elev 1549 ft 38.08 °N, 97.92 °W | Updated 24 seconds ago

Fog
Fog
57.7 °F
Feels Like 57.7 °F
N
0.0
Wind Variable Wind from SE
Gusts 0.0 mph

Today
High -- | Low -- °F
--% Chance of Precip.
Yesterday
High -- | Low -- °F
Precip. -- in
6:59 AM 8:04 PM
Full, 99% visible
Pressure 29.99 in
Visibility 0.5 miles
Clouds
Dew Point 58 °F
Humidity 99%
Rainfall 0.00 in
Snow Depth Not available.
UV Not available.
Pollen 10.60 out of 12
Air Quality Not available.
Flu Activity Not available.
METAR KHUT 300952Z AUTO 00000KT 1/2SM R13/P6000FT FG VV003 13/12 A3003 RMK AO2 SLP154 T01330122
Pressure 29.99 in
Visibility 0.5 miles
Clouds
Dew Point 58 °F
Humidity 99%
Rainfall 0.00 in
Snow Depth Not available.
UV Not available.
Pollen 10.60 out of 12
Air Quality Not available.
Flu Activity Not available.
METAR KHUT 300952Z AUTO 00000KT 1/2SM R13/P6000FT FG VV003 13/12 A3003 RMK AO2 SLP154 T01330122

10-Day Weather Forecast

×

Almanac

Astronomy

Aug. 30, 2015 Rise Set
Actual Time
Civil Twilight
Nautical Twilight
Astronomical Twilight
Moon
Length of Visible Light
Length of Day
Tomorrow will be .
, % of the Moon is Illuminated

Today's Extremes

State Highs State Lows

Community

WunderPhotos

Upload Photos

1,850,919 photos uploaded!

WunderBlogs® & News

Nearby

Air Quality

  Air Quality AQ Index Pollutant
Not available.

Snow Depth

Station Depth Elevation

Earthquake Activity

City Distance Mag. Time & Date
Minimum magnitude displayed is 2.5.

Coastal Water Temperatures

Place Temperature

Stations

Nearby Weather Stations

Station Location Temp. Windchill Dew Point Humidity Wind Precip. Elev Updated Type
                   
Dense Fog Advisory
Statement as of 4:13 AM CDT on August 30, 2015

... Dense fog advisory in effect until 10 am CDT this morning...

The National Weather Service in Wichita has issued a dense fog
advisory... which is in effect until 10 am CDT this morning.

* Timing... conditions will continue to deteriorate through 8 am...
with conditions expected to improve by 10 am.

* Impacts... areas with visibilities of less that one quarter mile
are likely. The dense fog is likely along highways 50 and
56... I-70 and I-135 between Newton and Salina. Abrupt changes in
visibilities are also likely across the Flint Hills.

Precautionary/preparedness actions...

A dense fog advisory means visibilities will frequently be
reduced to less than one quarter mile. If driving... slow down.
Use your headlights and leave plenty of distance ahead of you.



Howerton